createdAt,value
2018-05-25T00:01:39.927Z,21.60
2018-05-25T00:04:06.123Z,21.60
2018-05-25T00:06:32.280Z,21.60
2018-05-25T00:08:59.189Z,21.60
2018-05-25T00:11:25.352Z,21.60
2018-05-25T00:13:52.074Z,21.60
2018-05-25T00:16:18.278Z,21.60
2018-05-25T00:18:44.457Z,21.50
2018-05-25T00:21:10.601Z,21.50
2018-05-25T00:23:37.561Z,21.40
2018-05-25T00:26:04.491Z,21.40
2018-05-25T00:28:30.665Z,21.30
2018-05-25T00:30:56.908Z,21.40
2018-05-25T00:33:23.077Z,21.40
2018-05-25T00:35:49.246Z,21.30
2018-05-25T00:38:15.472Z,21.30
2018-05-25T00:40:41.679Z,21.30
2018-05-25T00:43:07.878Z,21.20
2018-05-25T00:45:34.081Z,21.20
2018-05-25T00:48:01.000Z,21.20
2018-05-25T00:50:27.177Z,21.10
2018-05-25T00:52:53.387Z,21.20
2018-05-25T00:55:38.112Z,21.10
2018-05-25T00:58:04.281Z,21.10
2018-05-25T01:00:31.210Z,21.00
2018-05-25T01:02:57.933Z,21.00
2018-05-25T01:05:24.142Z,21.00
2018-05-25T01:07:50.339Z,21.00
2018-05-25T01:10:16.501Z,21.00
2018-05-25T01:12:42.669Z,20.90
2018-05-25T01:15:08.870Z,20.90
2018-05-25T01:17:35.033Z,20.80
2018-05-25T01:20:01.221Z,20.80
2018-05-25T01:22:28.150Z,20.70
2018-05-25T01:24:54.310Z,20.70
2018-05-25T01:27:21.207Z,20.70
2018-05-25T01:29:47.381Z,20.60
2018-05-25T01:32:14.298Z,20.60
2018-05-25T01:34:40.488Z,20.60
2018-05-25T01:37:06.689Z,20.60
2018-05-25T01:39:33.620Z,20.50
2018-05-25T01:41:59.790Z,20.50
2018-05-25T01:44:26.816Z,20.40
2018-05-25T01:46:53.032Z,20.40
2018-05-25T01:49:19.249Z,20.40
2018-05-25T01:51:45.421Z,20.40
2018-05-25T01:54:12.362Z,20.30
2018-05-25T01:56:38.666Z,20.20
2018-05-25T01:59:04.847Z,20.20
2018-05-25T02:01:32.489Z,20.10
2018-05-25T02:03:58.664Z,20.10
2018-05-25T02:06:24.856Z,20.10
2018-05-25T02:08:51.066Z,20.00
2018-05-25T02:11:17.377Z,20.00
2018-05-25T02:13:43.566Z,20.00
2018-05-25T02:16:10.521Z,19.90
2018-05-25T02:18:36.712Z,19.90
2018-05-25T02:21:02.874Z,19.90
2018-05-25T02:23:29.025Z,19.90
2018-05-25T02:25:55.213Z,19.90
2018-05-25T02:28:21.393Z,19.80
2018-05-25T02:30:48.326Z,19.80
2018-05-25T02:33:14.510Z,19.80
2018-05-25T02:35:41.415Z,19.80
2018-05-25T02:38:07.614Z,19.80
2018-05-25T02:40:34.561Z,19.80
2018-05-25T02:43:00.779Z,19.80
2018-05-25T02:45:27.649Z,19.80
2018-05-25T02:47:53.862Z,19.80
2018-05-25T02:50:20.050Z,19.80
2018-05-25T02:52:46.207Z,19.80
2018-05-25T02:55:13.138Z,19.80
2018-05-25T02:57:39.305Z,19.80
2018-05-25T03:00:06.210Z,19.80
2018-05-25T03:02:32.420Z,19.80
2018-05-25T03:04:58.585Z,19.90
2018-05-25T03:07:24.779Z,19.80
2018-05-25T03:09:50.969Z,19.90
2018-05-25T03:12:17.408Z,19.80
2018-05-25T03:14:43.593Z,19.80
2018-05-25T03:17:09.764Z,19.70
2018-05-25T03:19:36.137Z,19.70
2018-05-25T03:22:03.066Z,19.70
2018-05-25T03:24:29.980Z,19.70
2018-05-25T03:26:56.166Z,19.60
2018-05-25T03:29:22.375Z,19.70
2018-05-25T03:31:48.569Z,19.70
2018-05-25T03:34:14.715Z,19.70
2018-05-25T03:36:40.907Z,19.70
2018-05-25T03:39:07.829Z,19.70
2018-05-25T03:41:34.763Z,19.70
2018-05-25T03:44:00.947Z,19.70
2018-05-25T03:46:27.117Z,19.70
2018-05-25T03:48:53.289Z,19.80
2018-05-25T03:51:19.508Z,19.80
2018-05-25T03:53:45.704Z,19.80
2018-05-25T03:56:11.869Z,19.90
2018-05-25T04:01:59.097Z,19.90
2018-05-25T04:04:26.084Z,19.90
2018-05-25T04:06:52.257Z,19.90
2018-05-25T04:09:18.443Z,19.90
2018-05-25T04:11:45.348Z,19.90
2018-05-25T04:14:11.742Z,19.90
2018-05-25T04:16:37.913Z,20.00
2018-05-25T04:19:04.114Z,20.00
2018-05-25T04:21:30.305Z,20.00
2018-05-25T04:23:57.267Z,20.10
2018-05-25T04:26:24.163Z,20.20
2018-05-25T04:28:50.322Z,20.10
2018-05-25T04:31:16.494Z,20.20
2018-05-25T04:33:42.682Z,20.30
2018-05-25T04:36:08.850Z,20.30
2018-05-25T04:38:35.793Z,20.50
2018-05-25T04:41:02.861Z,20.60
2018-05-25T04:43:29.060Z,20.50
2018-05-25T04:45:55.268Z,20.60
2018-05-25T04:48:23.654Z,20.80
2018-05-25T04:50:49.804Z,20.80
2018-05-25T04:53:16.023Z,20.90
2018-05-25T04:55:42.232Z,20.90
2018-05-25T04:58:08.501Z,21.00
2018-05-25T05:00:34.714Z,21.00
2018-05-25T05:03:00.911Z,21.10
2018-05-25T05:05:27.172Z,21.10
2018-05-25T05:07:53.384Z,21.10
2018-05-25T05:10:19.525Z,21.10
2018-05-25T05:12:46.454Z,21.20
2018-05-25T05:15:13.591Z,21.10
2018-05-25T05:17:39.746Z,21.10
2018-05-25T05:20:05.967Z,21.10
2018-05-25T05:22:32.170Z,21.10
2018-05-25T05:24:58.386Z,21.10
2018-05-25T05:27:24.609Z,21.20
2018-05-25T05:29:50.769Z,21.20
2018-05-25T05:32:16.942Z,21.30
2018-05-25T05:34:43.110Z,21.40
2018-05-25T05:37:10.032Z,21.80
2018-05-25T05:39:36.222Z,21.70
2018-05-25T05:42:02.420Z,21.90
2018-05-25T05:44:29.562Z,22.10
2018-05-25T05:46:55.763Z,22.30
2018-05-25T05:49:21.936Z,22.50
2018-05-25T05:51:48.957Z,23.00
2018-05-25T05:54:15.152Z,23.00
2018-05-25T05:56:41.334Z,23.20
2018-05-25T05:59:07.506Z,23.50
2018-05-25T06:01:33.954Z,23.70
2018-05-25T06:04:00.160Z,24.00
2018-05-25T06:06:27.092Z,24.40
2018-05-25T06:08:53.274Z,24.40
2018-05-25T06:11:19.527Z,24.70
2018-05-25T06:13:45.711Z,25.00
2018-05-25T06:16:11.909Z,25.30
2018-05-25T06:18:38.109Z,25.50
2018-05-25T06:21:04.313Z,25.80
2018-05-25T06:23:31.232Z,26.20
2018-05-25T06:25:57.414Z,26.20
2018-05-25T06:28:23.605Z,26.40
2018-05-25T06:30:49.757Z,26.70
2018-05-25T06:33:16.001Z,26.90
2018-05-25T06:35:42.888Z,27.40
2018-05-25T06:38:09.077Z,27.40
2018-05-25T06:40:35.994Z,28.00
2018-05-25T06:43:02.207Z,27.90
2018-05-25T06:45:28.361Z,28.20
2018-05-25T06:47:56.021Z,28.50
2018-05-25T06:50:22.181Z,28.50
2018-05-25T06:52:49.104Z,29.00
2018-05-25T06:55:15.300Z,28.90
2018-05-25T06:57:41.488Z,29.20
2018-05-25T07:00:08.416Z,29.70
2018-05-25T07:02:34.621Z,29.70
2018-05-25T07:05:00.796Z,30.00
2018-05-25T07:07:27.170Z,30.30
2018-05-25T07:09:53.340Z,30.60
2018-05-25T07:12:19.528Z,31.00
2018-05-25T07:14:46.458Z,31.60
2018-05-25T07:17:12.614Z,31.50
2018-05-25T07:19:38.804Z,31.90
2018-05-25T07:22:04.955Z,32.20
2018-05-25T07:24:31.113Z,32.50
2018-05-25T07:26:57.286Z,32.80
2018-05-25T07:29:23.468Z,33.00
2018-05-25T07:31:49.724Z,33.20
2018-05-25T07:34:16.644Z,33.70
2018-05-25T07:36:42.814Z,33.70
2018-05-25T07:39:08.997Z,34.00
2018-05-25T07:41:35.169Z,34.20
2018-05-25T07:44:01.339Z,34.50
2018-05-25T07:46:28.156Z,34.70
2018-05-25T07:48:55.066Z,35.00
2018-05-25T07:51:22.112Z,34.90
2018-05-25T07:53:48.261Z,34.90
2018-05-25T07:56:14.431Z,35.00
2018-05-25T07:58:41.343Z,35.00
2018-05-25T08:01:07.526Z,34.90
2018-05-25T08:03:33.758Z,35.00
2018-05-25T08:05:59.913Z,35.00
2018-05-25T08:08:26.333Z,35.00
2018-05-25T08:10:52.474Z,35.00
2018-05-25T08:13:18.653Z,34.90
2018-05-25T08:15:44.813Z,35.00
2018-05-25T08:18:12.258Z,35.00
2018-05-25T08:20:38.401Z,34.90
2018-05-25T08:23:04.559Z,34.90
2018-05-25T08:25:37.781Z,35.00
2018-05-25T08:28:03.945Z,35.00
2018-05-25T08:30:30.114Z,35.00
2018-05-25T08:32:56.278Z,35.00
2018-05-25T08:35:22.412Z,35.00
2018-05-25T08:37:48.544Z,34.90
2018-05-25T08:40:15.501Z,34.90
2018-05-25T08:42:41.684Z,34.80
2018-05-25T08:45:08.604Z,34.60
2018-05-25T08:47:34.785Z,34.60
2018-05-25T08:50:00.937Z,34.50
2018-05-25T08:52:27.129Z,34.40
2018-05-25T08:54:53.277Z,34.30
2018-05-25T08:57:19.496Z,34.20
2018-05-25T08:59:46.385Z,34.10
2018-05-25T09:02:12.536Z,34.10
2018-05-25T09:04:38.682Z,34.10
2018-05-25T09:07:04.901Z,34.10
2018-05-25T09:09:31.345Z,34.00
2018-05-25T09:11:58.113Z,33.90
2018-05-25T09:14:25.034Z,34.00
2018-05-25T09:16:51.190Z,33.90
2018-05-25T09:19:17.921Z,34.00
2018-05-25T09:21:44.146Z,34.10
2018-05-25T09:24:10.293Z,34.20
2018-05-25T09:26:36.492Z,34.30
2018-05-25T09:29:02.673Z,34.40
2018-05-25T09:31:28.829Z,34.60
2018-05-25T09:33:55.732Z,34.70
2018-05-25T09:36:21.981Z,34.70
2018-05-25T09:38:48.139Z,34.70
2018-05-25T09:41:15.372Z,34.70
2018-05-25T09:43:41.537Z,34.80
2018-05-25T09:46:07.707Z,34.90
2018-05-25T09:48:33.897Z,35.10
2018-05-25T09:51:00.826Z,35.50
2018-05-25T09:53:26.997Z,35.40
2018-05-25T09:55:53.177Z,35.70
2018-05-25T09:58:19.354Z,35.80
2018-05-25T10:00:46.302Z,36.00
2018-05-25T10:03:12.551Z,36.00
2018-05-25T10:05:39.211Z,36.00
2018-05-25T10:08:05.363Z,35.90
2018-05-25T10:10:31.566Z,35.90
2018-05-25T10:12:57.996Z,35.80
2018-05-25T10:15:24.902Z,35.70
2018-05-25T10:17:51.109Z,35.70
2018-05-25T10:20:17.277Z,35.70
2018-05-25T10:22:43.453Z,35.80
2018-05-25T10:25:10.338Z,35.80
2018-05-25T10:27:36.497Z,35.80
2018-05-25T10:30:02.664Z,35.80
2018-05-25T10:32:28.837Z,35.70
2018-05-25T10:34:55.011Z,35.60
2018-05-25T10:37:21.173Z,35.60
2018-05-25T10:39:47.333Z,35.60
2018-05-25T10:42:13.487Z,35.60
2018-05-25T10:44:40.329Z,35.60
2018-05-25T10:47:06.481Z,35.60
2018-05-25T10:49:32.721Z,35.50
2018-05-25T10:51:59.640Z,35.50
2018-05-25T10:54:25.800Z,35.40
2018-05-25T10:56:52.030Z,35.40
2018-05-25T10:59:18.949Z,35.00
2018-05-25T11:01:45.157Z,35.00
2018-05-25T11:04:12.058Z,34.60
2018-05-25T11:06:38.225Z,34.60
2018-05-25T11:09:05.113Z,34.10
2018-05-25T11:11:31.281Z,34.10
2018-05-25T11:13:58.222Z,33.60
2018-05-25T11:16:24.389Z,33.60
2018-05-25T11:18:51.309Z,33.30
2018-05-25T11:21:17.509Z,33.30
2018-05-25T11:23:44.382Z,33.20
2018-05-25T11:26:10.567Z,33.20
2018-05-25T11:28:36.740Z,33.30
2018-05-25T11:31:02.887Z,33.30
2018-05-25T11:33:29.043Z,33.30
2018-05-25T11:35:55.208Z,33.40
2018-05-25T11:38:21.377Z,33.40
2018-05-25T11:40:47.581Z,33.30
2018-05-25T11:43:13.792Z,33.30
2018-05-25T11:45:39.981Z,33.20
2018-05-25T11:48:06.133Z,33.20
2018-05-25T11:50:32.313Z,33.20
2018-05-25T11:52:58.777Z,33.20
2018-05-25T11:55:24.926Z,33.10
2018-05-25T11:57:51.091Z,33.20
2018-05-25T12:00:18.044Z,33.30
2018-05-25T12:02:44.212Z,33.20
2018-05-25T12:05:10.355Z,33.30
2018-05-25T12:07:36.509Z,33.20
2018-05-25T12:10:03.887Z,33.20
2018-05-25T12:12:30.067Z,33.20
2018-05-25T12:14:56.232Z,33.10
2018-05-25T12:17:22.435Z,33.00
2018-05-25T12:19:48.609Z,33.10
2018-05-25T12:22:14.813Z,33.10
2018-05-25T12:24:48.165Z,33.20
2018-05-25T12:27:15.093Z,33.40
2018-05-25T12:29:41.269Z,33.40
2018-05-25T12:32:07.422Z,33.50
2018-05-25T12:34:33.624Z,33.40
2018-05-25T12:37:00.505Z,33.50
2018-05-25T12:39:26.691Z,33.40
2018-05-25T12:41:53.781Z,33.50
2018-05-25T12:44:19.955Z,33.40
2018-05-25T12:46:46.133Z,33.50
2018-05-25T12:49:13.013Z,33.60
2018-05-25T12:51:39.209Z,33.50
2018-05-25T12:54:05.404Z,33.60
2018-05-25T12:56:31.565Z,33.60
2018-05-25T12:58:58.474Z,33.70
2018-05-25T13:01:24.617Z,33.60
2018-05-25T13:03:50.804Z,33.60
2018-05-25T13:06:16.959Z,33.70
2018-05-25T13:08:43.166Z,33.60
2018-05-25T13:11:10.053Z,33.70
2018-05-25T13:13:36.278Z,33.60
2018-05-25T13:16:02.420Z,33.70
2018-05-25T13:18:28.681Z,33.70
2018-05-25T13:20:54.860Z,33.60
2018-05-25T13:23:21.081Z,33.60
2018-05-25T13:25:47.282Z,33.70
2018-05-25T13:28:13.426Z,33.70
2018-05-25T13:30:40.101Z,33.80
2018-05-25T13:33:07.006Z,33.70
2018-05-25T13:35:33.189Z,33.70
2018-05-25T13:37:59.354Z,33.70
2018-05-25T13:40:25.500Z,33.60
2018-05-25T13:42:51.678Z,33.50
2018-05-25T13:45:17.873Z,33.50
2018-05-25T13:47:44.069Z,33.40
2018-05-25T13:50:10.229Z,33.30
2018-05-25T13:52:36.382Z,33.20
2018-05-25T13:55:02.561Z,33.20
2018-05-25T13:57:28.748Z,33.10
2018-05-25T13:59:54.933Z,33.00
2018-05-25T14:02:21.120Z,32.90
2018-05-25T14:04:54.228Z,32.80
2018-05-25T14:07:28.161Z,32.60
2018-05-25T14:09:54.388Z,32.50
2018-05-25T14:12:20.577Z,32.50
2018-05-25T14:14:46.749Z,32.40
2018-05-25T14:17:12.948Z,32.30
2018-05-25T14:19:39.116Z,32.20
2018-05-25T14:22:06.021Z,32.00
2018-05-25T14:24:32.201Z,32.00
2018-05-25T14:26:59.107Z,31.70
2018-05-25T14:29:25.282Z,31.70
2018-05-25T14:31:51.925Z,31.70
2018-05-25T14:34:18.845Z,31.60
2018-05-25T14:36:45.031Z,31.50
2018-05-25T14:39:11.205Z,31.60
2018-05-25T14:41:38.177Z,31.60
2018-05-25T14:44:05.095Z,31.70
2018-05-25T14:46:31.267Z,31.70
2018-05-25T14:48:58.170Z,31.80
2018-05-25T14:51:31.198Z,31.70
2018-05-25T14:53:58.164Z,31.70
2018-05-25T14:56:24.323Z,31.70
2018-05-25T14:58:50.490Z,31.70
2018-05-25T15:01:24.390Z,31.60
2018-05-25T15:03:50.590Z,31.50
2018-05-25T15:06:16.760Z,31.50
2018-05-25T15:08:42.929Z,31.50
2018-05-25T15:11:09.093Z,31.50
2018-05-25T15:13:35.252Z,31.40
2018-05-25T15:16:01.413Z,31.40
2018-05-25T15:18:27.574Z,31.40
2018-05-25T15:20:53.767Z,31.40
2018-05-25T15:23:19.900Z,31.30
2018-05-25T15:25:46.057Z,31.30
2018-05-25T15:28:12.214Z,31.20
2018-05-25T15:30:38.377Z,31.10
2018-05-25T15:33:04.868Z,31.00
2018-05-25T15:35:31.065Z,31.00
2018-05-25T15:37:57.212Z,30.90
2018-05-25T15:40:23.367Z,30.90
2018-05-25T15:42:49.525Z,30.90
2018-05-25T15:45:16.409Z,30.90
2018-05-25T15:47:42.528Z,30.90
2018-05-25T15:50:08.750Z,31.00
2018-05-25T15:52:35.632Z,31.00
2018-05-25T15:55:02.531Z,31.00
2018-05-25T15:57:29.421Z,31.00
2018-05-25T15:59:55.528Z,31.00
2018-05-25T16:02:21.747Z,31.00
2018-05-25T16:04:47.926Z,30.90
2018-05-25T16:07:14.105Z,30.90
2018-05-25T16:09:40.417Z,30.90
2018-05-25T16:12:06.565Z,30.80
2018-05-25T16:14:32.725Z,30.80
2018-05-25T16:16:59.597Z,30.70
2018-05-25T16:19:25.760Z,30.70
2018-05-25T16:21:51.908Z,30.70
2018-05-25T16:24:18.065Z,30.70
2018-05-25T16:26:44.222Z,30.70
2018-05-25T16:29:10.369Z,30.70
2018-05-25T16:31:36.507Z,30.60
2018-05-25T16:34:02.639Z,30.60
2018-05-25T16:36:28.830Z,30.60
2018-05-25T16:38:55.705Z,30.60
2018-05-25T16:41:21.869Z,30.50
2018-05-25T16:43:48.043Z,30.60
2018-05-25T16:46:14.242Z,30.60
2018-05-25T16:48:40.371Z,30.50
2018-05-25T16:51:06.542Z,30.50
2018-05-25T16:53:32.683Z,30.50
2018-05-25T16:55:58.930Z,30.50
2018-05-25T16:58:25.040Z,30.40
2018-05-25T17:00:51.181Z,30.40
2018-05-25T17:03:17.321Z,30.30
2018-05-25T17:05:43.481Z,30.30
2018-05-25T17:08:09.601Z,30.20
2018-05-25T17:10:35.799Z,30.10
2018-05-25T17:13:01.917Z,30.10
2018-05-25T17:15:28.828Z,29.90
2018-05-25T17:17:55.029Z,29.90
2018-05-25T17:20:21.198Z,29.90
2018-05-25T17:22:47.378Z,29.80
2018-05-25T17:25:13.622Z,29.60
2018-05-25T17:27:39.851Z,29.60
2018-05-25T17:30:06.130Z,29.50
2018-05-25T17:32:32.340Z,29.40
2018-05-25T17:34:59.497Z,29.30
2018-05-25T17:37:26.444Z,29.10
2018-05-25T17:39:52.599Z,29.10
2018-05-25T17:42:19.694Z,29.00
2018-05-25T17:44:45.985Z,29.00
2018-05-25T17:47:12.112Z,28.90
2018-05-25T17:49:39.021Z,28.70
2018-05-25T17:52:05.951Z,28.60
2018-05-25T17:54:32.118Z,28.60
2018-05-25T17:56:58.325Z,28.60
2018-05-25T17:59:24.509Z,28.50
2018-05-25T18:01:50.692Z,28.50
2018-05-25T18:04:17.654Z,28.30
2018-05-25T18:06:43.846Z,28.30
2018-05-25T18:09:09.975Z,28.30
2018-05-25T18:11:36.093Z,28.20
2018-05-25T18:14:02.589Z,28.10
2018-05-25T18:16:28.744Z,28.10
2018-05-25T18:18:54.876Z,28.00
2018-05-25T18:21:21.818Z,27.90
2018-05-25T18:23:47.982Z,27.90
2018-05-25T18:26:14.840Z,27.80
2018-05-25T18:28:41.001Z,27.80
2018-05-25T18:31:07.147Z,27.70
2018-05-25T18:33:33.299Z,27.70
2018-05-25T18:35:59.447Z,27.70
2018-05-25T18:38:26.329Z,27.60
2018-05-25T18:40:52.473Z,27.50
2018-05-25T18:43:18.616Z,27.50
2018-05-25T18:45:44.766Z,27.40
2018-05-25T18:48:12.250Z,27.40
2018-05-25T18:50:39.141Z,27.30
2018-05-25T18:53:05.277Z,27.20
2018-05-25T18:55:31.462Z,27.20
2018-05-25T18:57:58.365Z,27.10
2018-05-25T19:00:24.550Z,27.00
2018-05-25T19:02:50.704Z,27.10
2018-05-25T19:05:17.621Z,26.90
2018-05-25T19:07:43.749Z,26.90
2018-05-25T19:10:09.994Z,26.90
2018-05-25T19:12:37.171Z,26.80
2018-05-25T19:15:04.040Z,26.70
2018-05-25T19:17:30.210Z,26.60
2018-05-25T19:19:56.423Z,26.60
2018-05-25T19:22:22.509Z,26.60
2018-05-25T19:24:49.441Z,26.50
2018-05-25T19:27:15.594Z,26.40
2018-05-25T19:29:41.762Z,26.40
2018-05-25T19:32:07.938Z,26.40
2018-05-25T19:34:35.550Z,26.20
2018-05-25T19:37:01.738Z,26.20
2018-05-25T19:39:27.874Z,26.20
2018-05-25T19:41:54.769Z,26.10
2018-05-25T19:44:20.957Z,26.00
2018-05-25T19:46:47.165Z,26.00
2018-05-25T19:49:13.413Z,26.00
2018-05-25T19:51:39.578Z,25.90
2018-05-25T19:54:06.477Z,25.80
2018-05-25T19:56:32.652Z,25.70
2018-05-25T19:58:58.796Z,25.70
2018-05-25T20:01:25.692Z,25.50
2018-05-25T20:03:51.835Z,25.50
2018-05-25T20:06:18.014Z,25.50
2018-05-25T20:08:45.764Z,25.30
2018-05-25T20:11:11.904Z,25.20
2018-05-25T20:13:38.253Z,25.20
2018-05-25T20:16:04.452Z,25.10
2018-05-25T20:18:30.578Z,25.10
2018-05-25T20:20:56.734Z,25.00
2018-05-25T20:23:22.870Z,24.90
2018-05-25T20:25:49.024Z,24.80
2018-05-25T20:28:15.909Z,24.70
2018-05-25T20:30:42.041Z,24.70
2018-05-25T20:33:08.177Z,24.60
2018-05-25T20:35:34.362Z,24.60
2018-05-25T20:38:01.289Z,24.50
2018-05-25T20:40:27.441Z,24.40
2018-05-25T20:42:54.313Z,24.30
2018-05-25T20:45:20.461Z,24.30
2018-05-25T20:47:46.777Z,24.30
2018-05-25T20:50:13.049Z,24.20
2018-05-25T20:52:39.206Z,24.20
2018-05-25T20:55:05.341Z,24.10
2018-05-25T20:57:31.535Z,24.00
2018-05-25T20:59:58.005Z,24.00
2018-05-25T21:02:24.142Z,23.90
2018-05-25T21:07:53.996Z,23.70
2018-05-25T21:10:20.184Z,23.70
2018-05-25T21:12:46.550Z,23.60
2018-05-25T21:15:12.784Z,23.50
2018-05-25T21:17:39.669Z,23.30
2018-05-25T21:20:05.787Z,23.30
2018-05-25T21:22:32.701Z,23.20
2018-05-25T21:24:58.919Z,23.20
2018-05-25T21:27:25.221Z,23.20
2018-05-25T21:29:52.114Z,23.10
2018-05-25T21:32:18.320Z,23.10
2018-05-25T21:34:44.539Z,23.00
2018-05-25T21:37:10.696Z,23.00
2018-05-25T21:39:36.870Z,22.90
2018-05-25T21:42:03.003Z,22.80
2018-05-25T21:44:29.213Z,22.80
2018-05-25T21:46:55.372Z,22.70
2018-05-25T21:49:21.498Z,22.70
2018-05-25T21:51:47.643Z,22.60
2018-05-25T21:54:14.509Z,22.50
2018-05-25T21:56:40.694Z,22.40
2018-05-25T21:59:06.832Z,22.50
2018-05-25T22:01:33.955Z,22.40
2018-05-25T22:04:00.134Z,22.40
2018-05-25T22:06:26.264Z,22.30
2018-05-25T22:08:53.889Z,22.20
2018-05-25T22:11:20.030Z,22.20
2018-05-25T22:13:46.157Z,22.10
2018-05-25T22:16:12.289Z,22.10
2018-05-25T22:18:38.438Z,22.00
2018-05-25T22:21:04.582Z,22.00
2018-05-25T22:23:30.721Z,21.90
2018-05-25T22:25:56.850Z,21.80
2018-05-25T22:28:22.989Z,21.70
2018-05-25T22:30:49.258Z,21.70
2018-05-25T22:33:15.654Z,21.60
2018-05-25T22:35:41.793Z,21.50
2018-05-25T22:38:07.976Z,21.50
2018-05-25T22:40:34.113Z,21.50
2018-05-25T22:43:18.974Z,21.40
2018-05-25T22:46:10.907Z,21.30
2018-05-25T22:49:01.973Z,21.20
2018-05-25T22:51:52.875Z,21.20
2018-05-25T22:54:31.463Z,21.10
2018-05-25T22:56:58.349Z,21.00
2018-05-25T22:59:24.490Z,20.90
2018-05-25T23:01:50.670Z,20.90
2018-05-25T23:04:17.599Z,20.70
2018-05-25T23:06:43.778Z,20.70
2018-05-25T23:09:09.955Z,20.70
2018-05-25T23:11:36.110Z,20.60
2018-05-25T23:14:03.009Z,20.50
2018-05-25T23:16:29.166Z,20.40
2018-05-25T23:18:55.344Z,20.40
2018-05-25T23:21:21.516Z,20.40
2018-05-25T23:23:47.685Z,20.40
2018-05-25T23:26:13.829Z,20.30
2018-05-25T23:28:40.733Z,20.20
2018-05-25T23:31:06.921Z,20.20
2018-05-25T23:33:34.692Z,20.20
2018-05-25T23:36:01.585Z,20.20
2018-05-25T23:38:27.761Z,20.10
2018-05-25T23:40:54.655Z,20.10
2018-05-25T23:43:20.806Z,20.00
2018-05-25T23:45:46.974Z,20.10
2018-05-25T23:48:13.876Z,20.00
2018-05-25T23:50:40.074Z,19.90
2018-05-25T23:53:06.257Z,19.90
2018-05-25T23:55:32.424Z,19.90
2018-05-25T23:57:59.333Z,19.80
